Terminal Aerodrome Forecast
Issued by NWS Flagstaff, AZ

Home | Current Version | Previous Version | Text Only | Print | Product List | Glossary On
Versions: 1 2 3 4 5 6 7 8 9 10 11 12 13 14 15 16
000
FTUS45 KFGZ 220000 AAA
TAFINW
TAF AMD
KINW 220054Z 2201/2224 VRB06KT P6SM -SHRA BKN090 OVC110
      TEMPO 2201/2204 VRB20G30KT 5SM -TSRA BKN060CB OVC090
     FM220600 VRB05KT P6SM SCT080 BKN110
     FM221800 23010KT P6SM SCT080 SCT120=

USA.gov is the U.S. government's official web portal to all federal, state and local government web resources and services.